Time;durP1;ratioP1;P1;durP2;ratioP2;P2;SDS_P1;SDS_P2;PMS_P1;PMS_P2;Temp;Humidity;BMP_temperature;BMP_pressure;BME280_temperature;BME280_humidity;BME280_pressure;Samples;Min_cycle;Max_cycle;Signal;HPM_P1;HPM_P2
2023/11/01 00:01:24;;;;;;;0.47;0.40;;;11.20;99.90;;;;;;5033326;28;20926;-81
2023/11/01 00:03:50;;;;;;;2.55;1.20;;;11.20;99.90;;;;;;5033117;28;20485;-81
2023/11/01 00:06:17;;;;;;;0.70;0.70;;;11.20;99.90;;;;;;5033558;28;20229;-81
2023/11/01 00:08:44;;;;;;;2.35;1.73;;;11.10;99.90;;;;;;5033682;28;20443;-82
2023/11/01 00:11:11;;;;;;;0.50;0.40;;;11.10;99.90;;;;;;5033453;28;20283;-81
2023/11/01 00:13:38;;;;;;;0.50;0.50;;;11.10;99.90;;;;;;5033137;28;20603;-82
2023/11/01 00:16:06;;;;;;;0.70;0.70;;;11.10;99.90;;;;;;5032523;28;20195;-82
2023/11/01 00:18:33;;;;;;;1.07;0.97;;;11.10;99.90;;;;;;5031713;28;20445;-82
2023/11/01 00:21:00;;;;;;;0.80;0.60;;;11.10;99.90;;;;;;5032332;28;20614;-82
2023/11/01 00:23:27;;;;;;;1.95;0.98;;;11.20;99.90;;;;;;5030909;28;20482;-81
2023/11/01 00:25:53;;;;;;;0.50;0.40;;;11.20;99.90;;;;;;5032192;28;20192;-82
2023/11/01 00:28:20;;;;;;;0.45;0.40;;;11.10;99.90;;;;;;5031805;28;20446;-81
2023/11/01 00:30:47;;;;;;;0.63;0.50;;;11.10;99.90;;;;;;5032482;28;20196;-82
2023/11/01 00:33:15;;;;;;;0.63;0.50;;;11.10;99.90;;;;;;5031500;28;20469;-81
2023/11/01 00:35:42;;;;;;;0.53;0.53;;;11.20;99.90;;;;;;5024164;28;20439;-81
2023/11/01 00:38:09;;;;;;;0.50;0.40;;;11.20;99.90;;;;;;5031968;28;20450;-81
2023/11/01 00:40:36;;;;;;;0.50;0.50;;;11.20;99.90;;;;;;5031645;28;20200;-81
2023/11/01 00:43:04;;;;;;;0.40;0.30;;;11.20;99.90;;;;;;5030814;28;20838;-81
2023/11/01 00:45:30;;;;;;;0.50;0.50;;;11.20;99.90;;;;;;5031381;28;20200;-81
2023/11/01 00:47:57;;;;;;;2.97;0.60;;;11.20;99.90;;;;;;5031769;28;20196;-82
2023/11/01 00:50:25;;;;;;;0.40;0.40;;;11.20;99.90;;;;;;5031661;28;20443;-81
2023/11/01 00:52:52;;;;;;;0.83;0.83;;;11.20;99.90;;;;;;5031679;28;20459;-82
2023/11/01 00:55:19;;;;;;;0.60;0.60;;;11.20;99.90;;;;;;5031446;28;20446;-81
2023/11/01 00:57:47;;;;;;;0.50;0.38;;;11.20;99.90;;;;;;5031300;28;20442;-83
2023/11/01 01:00:15;;;;;;;0.40;0.40;;;11.30;99.90;;;;;;5031513;28;20294;-82
2023/11/01 01:02:42;;;;;;;0.50;0.40;;;11.20;99.90;;;;;;5031420;28;20215;-81
2023/11/01 01:05:09;;;;;;;1.17;1.17;;;11.20;99.90;;;;;;5031374;28;20445;-81
2023/11/01 01:07:39;;;;;;;0.50;0.40;;;11.30;99.90;;;;;;5031135;28;20514;-78
2023/11/01 01:10:06;;;;;;;1.13;1.13;;;11.20;99.90;;;;;;5031490;28;20442;-82
2023/11/01 01:12:33;;;;;;;3.73;0.70;;;11.20;99.90;;;;;;5031105;28;20445;-81
2023/11/01 01:15:01;;;;;;;0.47;0.40;;;11.30;99.90;;;;;;5031452;28;20448;-81
2023/11/01 01:17:28;;;;;;;0.50;0.50;;;11.20;99.90;;;;;;5030828;28;20239;-81
2023/11/01 01:19:54;;;;;;;0.50;0.40;;;11.20;99.90;;;;;;5031359;28;20198;-80
2023/11/01 01:22:22;;;;;;;0.50;0.50;;;11.20;99.90;;;;;;5030951;28;20219;-82
2023/11/01 01:24:50;;;;;;;0.85;0.85;;;11.20;99.90;;;;;;5035857;28;20295;-82
2023/11/01 01:27:18;;;;;;;0.40;0.40;;;11.20;99.90;;;;;;5034561;28;20200;-82
2023/11/01 01:29:45;;;;;;;0.50;0.40;;;11.20;99.90;;;;;;5033767;28;20449;-82
2023/11/01 01:32:11;;;;;;;0.50;0.40;;;11.20;99.90;;;;;;5033091;28;20446;-82
2023/11/01 01:34:38;;;;;;;0.50;0.40;;;11.20;99.90;;;;;;5034660;28;20462;-82
2023/11/01 01:37:05;;;;;;;0.47;0.40;;;11.10;99.90;;;;;;5037875;28;20529;-82
2023/11/01 01:39:32;;;;;;;0.40;0.40;;;11.10;99.90;;;;;;5037493;28;20444;-82
2023/11/01 01:42:00;;;;;;;0.80;0.70;;;11.10;99.90;;;;;;5036938;28;20646;-82
2023/11/01 01:44:26;;;;;;;0.47;0.47;;;11.10;99.90;;;;;;5037127;28;20565;-82
2023/11/01 01:46:53;;;;;;;0.50;0.40;;;11.10;99.90;;;;;;5037486;28;20552;-82
2023/11/01 01:49:20;;;;;;;0.40;0.40;;;11.00;99.90;;;;;;5036964;28;20196;-82
2023/11/01 01:51:46;;;;;;;0.40;0.40;;;11.00;99.90;;;;;;5036654;28;20674;-82
2023/11/01 01:54:13;;;;;;;0.50;0.30;;;11.00;99.90;;;;;;5037273;28;20494;-82
2023/11/01 01:56:40;;;;;;;0.50;0.40;;;11.00;99.90;;;;;;5036993;28;20278;-82
2023/11/01 01:59:08;;;;;;;0.50;0.40;;;11.00;99.90;;;;;;5037255;28;20442;-82
2023/11/01 02:01:36;;;;;;;0.40;0.40;;;11.00;99.90;;;;;;5037109;28;20204;-83
2023/11/01 02:04:03;;;;;;;0.40;0.40;;;11.00;99.90;;;;;;5037624;28;20474;-83
2023/11/01 02:06:30;;;;;;;9.48;1.05;;;11.00;99.90;;;;;;5036358;28;20442;-82
2023/11/01 02:08:57;;;;;;;0.50;0.38;;;11.00;99.90;;;;;;5037148;28;20207;-82
2023/11/01 02:11:24;;;;;;;0.40;0.35;;;10.90;99.90;;;;;;5044711;28;20210;-83
2023/11/01 02:13:51;;;;;;;0.50;0.40;;;11.00;99.90;;;;;;5034654;28;20222;-83
2023/11/01 02:16:19;;;;;;;0.50;0.40;;;11.00;99.90;;;;;;5039630;28;20206;-83
2023/11/01 02:18:45;;;;;;;0.50;0.40;;;10.90;99.90;;;;;;5036967;28;20447;-83
2023/11/01 02:21:12;;;;;;;0.40;0.40;;;10.90;99.90;;;;;;5037171;28;20473;-83
2023/11/01 02:23:43;;;;;;;0.50;0.40;;;10.90;99.90;;;;;;5036974;28;20545;-82
2023/11/01 02:26:10;;;;;;;0.50;0.40;;;10.90;99.90;;;;;;5037102;28;20226;-82
2023/11/01 02:28:37;;;;;;;1.25;1.23;;;10.90;99.90;;;;;;5036630;28;20529;-81
2023/11/01 02:31:04;;;;;;;0.50;0.40;;;10.90;99.90;;;;;;5036430;28;20199;-82
2023/11/01 02:33:31;;;;;;;0.50;0.40;;;10.80;99.90;;;;;;5035701;28;20493;-81
2023/11/01 02:35:58;;;;;;;0.50;0.40;;;10.80;99.90;;;;;;5036886;28;20199;-82
2023/11/01 02:38:25;;;;;;;0.40;0.30;;;10.80;99.90;;;;;;5036981;28;20208;-82
2023/11/01 02:40:54;;;;;;;0.70;0.70;;;10.80;99.90;;;;;;5036551;28;20812;-82
2023/11/01 02:43:21;;;;;;;0.80;0.80;;;10.80;99.90;;;;;;5036719;28;20622;-82
2023/11/01 02:45:48;;;;;;;0.50;0.47;;;10.80;99.90;;;;;;5035715;28;20451;-82
2023/11/01 02:48:15;;;;;;;0.40;0.30;;;10.80;99.90;;;;;;5036275;28;20206;-82
2023/11/01 02:50:42;;;;;;;0.50;0.40;;;10.80;99.90;;;;;;5036566;28;20192;-81
2023/11/01 02:53:09;;;;;;;0.40;0.30;;;10.90;99.90;;;;;;5036288;28;20473;-82
2023/11/01 02:55:35;;;;;;;2.60;1.00;;;10.90;99.90;;;;;;5036084;28;20482;-80
2023/11/01 02:58:04;;;;;;;1.02;1.02;;;10.90;99.90;;;;;;5037033;28;20195;-82
2023/11/01 03:00:31;;;;;;;0.50;0.40;;;10.90;99.90;;;;;;5036519;28;20204;-82
2023/11/01 03:02:58;;;;;;;0.40;0.40;;;10.90;99.90;;;;;;5036457;28;20224;-82
2023/11/01 03:05:26;;;;;;;4.00;0.87;;;10.90;99.90;;;;;;5036761;28;20207;-83
2023/11/01 03:07:54;;;;;;;0.40;0.40;;;10.90;99.90;;;;;;5036105;28;20446;-83
2023/11/01 03:10:21;;;;;;;1.10;1.00;;;10.90;99.90;;;;;;5037554;28;20230;-82
2023/11/01 03:12:48;;;;;;;0.50;0.40;;;10.90;99.90;;;;;;5036708;28;20447;-82
2023/11/01 03:15:16;;;;;;;0.50;0.40;;;10.90;99.90;;;;;;5036426;28;21004;-81
2023/11/01 03:17:43;;;;;;;1.10;0.97;;;10.90;99.90;;;;;;5035526;28;20530;-83
2023/11/01 03:20:11;;;;;;;2.70;0.90;;;10.90;99.90;;;;;;5037179;28;20517;-82
2023/11/01 03:22:38;;;;;;;0.50;0.40;;;10.90;99.90;;;;;;5037146;28;20450;-82
2023/11/01 03:25:06;;;;;;;0.43;0.40;;;10.90;99.90;;;;;;5037593;28;20195;-82
2023/11/01 03:27:33;;;;;;;2.23;2.00;;;10.90;99.90;;;;;;5036358;28;20283;-82
2023/11/01 03:29:59;;;;;;;0.50;0.40;;;10.90;99.90;;;;;;5036313;28;20542;-82
2023/11/01 03:32:27;;;;;;;0.50;0.40;;;10.90;99.90;;;;;;5036004;28;20445;-82
2023/11/01 03:34:54;;;;;;;0.70;0.70;;;10.90;99.90;;;;;;5035666;28;20468;-82
2023/11/01 03:37:21;;;;;;;0.43;0.40;;;11.00;99.90;;;;;;5035982;28;20210;-82
2023/11/01 03:39:48;;;;;;;0.50;0.40;;;10.90;99.90;;;;;;5036746;28;20456;-83
2023/11/01 03:42:14;;;;;;;0.70;0.70;;;10.90;99.90;;;;;;5036028;28;20449;-83
2023/11/01 03:44:42;;;;;;;0.40;0.40;;;11.00;99.90;;;;;;5035724;28;20220;-83
2023/11/01 03:47:09;;;;;;;0.40;0.40;;;10.90;99.90;;;;;;5036643;28;20446;-82
2023/11/01 03:49:37;;;;;;;0.50;0.50;;;10.90;99.90;;;;;;5036105;28;20447;-82
2023/11/01 03:52:05;;;;;;;0.53;0.50;;;10.90;99.90;;;;;;5035697;28;20670;-82
2023/11/01 03:54:33;;;;;;;0.47;0.45;;;10.90;99.90;;;;;;5035904;28;20464;-82
2023/11/01 03:57:01;;;;;;;0.50;0.40;;;10.90;99.90;;;;;;5035202;28;20200;-82
2023/11/01 03:59:27;;;;;;;1.37;1.00;;;10.90;99.90;;;;;;5035256;28;20192;-82
2023/11/01 04:01:54;;;;;;;0.50;0.50;;;10.80;99.90;;;;;;5035628;28;20446;-83
2023/11/01 04:04:21;;;;;;;1.17;0.52;;;10.80;99.90;;;;;;5036018;28;20225;-83
2023/11/01 04:06:49;;;;;;;1.10;0.87;;;10.80;99.90;;;;;;5035310;28;20204;-82
2023/11/01 04:09:16;;;;;;;0.43;0.40;;;10.80;99.90;;;;;;5035815;28;20822;-83
2023/11/01 04:11:43;;;;;;;0.57;0.57;;;10.80;99.90;;;;;;5036026;28;20211;-82
2023/11/01 04:14:10;;;;;;;1.27;1.20;;;10.90;99.90;;;;;;5035685;28;20648;-82
2023/11/01 04:16:37;;;;;;;0.40;0.40;;;10.80;99.90;;;;;;5034293;28;20204;-81
2023/11/01 04:19:03;;;;;;;0.47;0.40;;;10.80;99.90;;;;;;5035142;28;20196;-82
2023/11/01 04:21:30;;;;;;;0.43;0.40;;;10.90;99.90;;;;;;5034787;28;20199;-82
2023/11/01 04:23:59;;;;;;;0.50;0.40;;;10.90;99.90;;;;;;5034055;28;20488;-82
2023/11/01 04:26:25;;;;;;;0.87;0.80;;;10.90;99.90;;;;;;5034976;28;20810;-83
2023/11/01 04:28:52;;;;;;;0.50;0.50;;;10.90;99.90;;;;;;5035945;28;20446;-85
2023/11/01 04:31:24;;;;;;;0.90;0.90;;;10.90;99.90;;;;;;5043513;28;20473;-83
2023/11/01 04:33:51;;;;;;;0.77;0.47;;;11.00;99.90;;;;;;5042906;28;20212;-83
2023/11/01 04:36:24;;;;;;;0.50;0.40;;;11.00;99.90;;;;;;5041419;28;20486;-83
2023/11/01 04:38:51;;;;;;;0.40;0.40;;;11.10;99.90;;;;;;5043435;28;20438;-84
2023/11/01 04:41:20;;;;;;;1.43;0.83;;;11.10;99.90;;;;;;5039718;28;20446;-84
2023/11/01 04:43:47;;;;;;;1.00;0.70;;;11.10;99.90;;;;;;5037979;28;20482;-83
2023/11/01 04:46:14;;;;;;;0.53;0.50;;;11.10;99.90;;;;;;5040337;28;20446;-83
2023/11/01 04:48:42;;;;;;;0.80;0.80;;;11.10;99.90;;;;;;5041183;28;20922;-83
2023/11/01 04:51:08;;;;;;;0.93;0.75;;;11.10;99.90;;;;;;5041100;28;20249;-83
2023/11/01 04:53:36;;;;;;;0.70;0.60;;;11.20;99.90;;;;;;5039216;28;20220;-84
2023/11/01 04:56:05;;;;;;;0.50;0.40;;;11.20;99.90;;;;;;5043325;28;20469;-84
2023/11/01 04:58:35;;;;;;;0.93;0.80;;;11.20;99.90;;;;;;5038572;28;20446;-84
2023/11/01 05:01:04;;;;;;;10.33;0.70;;;11.20;99.90;;;;;;5041569;28;20469;-83
2023/11/01 05:03:31;;;;;;;0.47;0.40;;;11.20;99.90;;;;;;5041071;28;20853;-84
2023/11/01 05:05:58;;;;;;;1.50;0.50;;;11.20;99.90;;;;;;5038582;28;20481;-82
2023/11/01 05:08:24;;;;;;;0.80;0.80;;;11.20;99.90;;;;;;5038378;28;20446;-84
2023/11/01 05:10:51;;;;;;;0.40;0.40;;;11.20;99.90;;;;;;5037817;28;20526;-83
2023/11/01 05:13:18;;;;;;;0.70;0.70;;;11.20;99.90;;;;;;5037939;28;20226;-83
2023/11/01 05:15:46;;;;;;;0.40;0.40;;;11.20;99.90;;;;;;5037853;28;20446;-84
2023/11/01 05:18:13;;;;;;;0.47;0.40;;;11.30;99.90;;;;;;5039579;28;20264;-83
2023/11/01 05:20:40;;;;;;;0.90;0.73;;;11.30;99.90;;;;;;5041303;28;20964;-85
2023/11/01 05:23:08;;;;;;;0.70;0.70;;;11.30;99.90;;;;;;5031357;28;20534;-86
2023/11/01 05:25:35;;;;;;;0.93;0.93;;;11.30;99.90;;;;;;5038212;28;20905;-84
2023/11/01 05:28:02;;;;;;;0.47;0.43;;;11.30;99.90;;;;;;5036515;28;20457;-84
2023/11/01 05:30:29;;;;;;;0.40;0.40;;;11.30;99.90;;;;;;5038612;28;20444;-84
2023/11/01 05:32:57;;;;;;;0.70;0.50;;;11.30;99.90;;;;;;5039566;28;20474;-86
2023/11/01 05:35:24;;;;;;;0.50;0.43;;;11.40;99.90;;;;;;5039214;28;20200;-87
2023/11/01 05:37:52;;;;;;;0.77;0.50;;;11.40;99.90;;;;;;5037238;28;20291;-86
2023/11/01 05:40:19;;;;;;;0.40;0.38;;;11.40;99.90;;;;;;5036472;28;20230;-85
2023/11/01 05:42:46;;;;;;;0.50;0.50;;;11.40;99.90;;;;;;5039147;28;20203;-85
2023/11/01 05:45:15;;;;;;;0.80;0.80;;;11.40;99.90;;;;;;5040558;28;20539;-86
2023/11/01 05:47:43;;;;;;;0.40;0.40;;;11.40;99.90;;;;;;5042692;28;20451;-86
2023/11/01 05:50:13;;;;;;;0.80;0.80;;;11.40;99.90;;;;;;5035044;28;20439;-85
2023/11/01 05:52:40;;;;;;;0.40;0.40;;;11.40;99.90;;;;;;5042869;28;20889;-83
2023/11/01 05:55:08;;;;;;;0.68;0.50;;;11.40;99.90;;;;;;5041844;28;20427;-86
2023/11/01 05:57:36;;;;;;;0.40;0.40;;;11.40;99.90;;;;;;5039664;28;20210;-85
2023/11/01 06:00:08;;;;;;;0.70;0.70;;;11.40;99.90;;;;;;5039859;28;20445;-87
2023/11/01 06:02:36;;;;;;;0.80;0.53;;;11.40;99.90;;;;;;5038614;28;20438;-86
2023/11/01 06:05:03;;;;;;;0.40;0.40;;;11.40;99.90;;;;;;5035916;28;20474;-85
2023/11/01 06:07:31;;;;;;;0.40;0.40;;;11.40;99.90;;;;;;5038154;28;20484;-84
2023/11/01 06:09:58;;;;;;;0.50;0.40;;;11.40;99.90;;;;;;5038459;28;20457;-87
2023/11/01 06:12:24;;;;;;;0.50;0.50;;;11.40;99.90;;;;;;5038164;28;20439;-86
2023/11/01 06:14:51;;;;;;;0.43;0.40;;;11.40;99.90;;;;;;5037063;28;20446;-85
2023/11/01 06:17:20;;;;;;;0.95;0.95;;;11.40;99.90;;;;;;5038661;28;20518;-83
2023/11/01 06:19:48;;;;;;;0.43;0.40;;;11.40;99.90;;;;;;5042401;28;20222;-85
2023/11/01 06:22:16;;;;;;;0.40;0.40;;;11.40;99.90;;;;;;5044612;28;20576;-86
2023/11/01 06:24:45;;;;;;;0.40;0.40;;;11.40;99.90;;;;;;5045817;28;20470;-84
2023/11/01 06:27:13;;;;;;;1.03;0.97;;;11.40;99.90;;;;;;5045466;28;20434;-85
2023/11/01 06:29:42;;;;;;;2.50;1.23;;;11.40;99.90;;;;;;5046296;28;20442;-85
2023/11/01 06:32:09;;;;;;;2.40;1.20;;;11.40;99.90;;;;;;5046304;28;20492;-85
2023/11/01 06:34:36;;;;;;;0.40;0.40;;;11.40;99.90;;;;;;5053708;28;20469;-83
2023/11/01 06:37:03;;;;;;;0.50;0.40;;;11.40;99.90;;;;;;5045745;28;20637;-85
2023/11/01 06:39:29;;;;;;;0.40;0.40;;;11.40;99.90;;;;;;5044196;28;20509;-85
2023/11/01 06:41:58;;;;;;;0.40;0.40;;;11.40;99.90;;;;;;5043889;28;20442;-85
2023/11/01 06:44:24;;;;;;;0.40;0.40;;;11.40;99.90;;;;;;5046595;28;20504;-84
2023/11/01 06:46:52;;;;;;;0.50;0.50;;;11.40;99.90;;;;;;5046229;28;20525;-83
2023/11/01 06:49:19;;;;;;;2.00;1.47;;;11.40;99.90;;;;;;5047288;28;20505;-84
2023/11/01 06:51:46;;;;;;;2.50;0.40;;;11.40;99.90;;;;;;5045880;28;20454;-80
2023/11/01 06:54:13;;;;;;;0.50;0.40;;;11.40;99.90;;;;;;5038655;28;20473;-83
2023/11/01 06:56:44;;;;;;;0.40;0.40;;;11.50;99.90;;;;;;5042848;28;20553;-81
2023/11/01 06:59:13;;;;;;;0.40;0.40;;;11.50;99.90;;;;;;5043313;28;20434;-84
2023/11/01 07:01:40;;;;;;;0.50;0.50;;;11.40;99.90;;;;;;5043613;28;20442;-84
2023/11/01 07:04:07;;;;;;;0.80;0.50;;;11.50;99.90;;;;;;5041802;28;20482;-82
2023/11/01 07:06:33;;;;;;;0.50;0.40;;;11.50;99.90;;;;;;5042369;28;20439;-84
2023/11/01 07:10:01;;;;;;;;;;;;;;;;;;;;;
2023/11/01 07:12:28;;;;;;;0.40;0.40;;;11.50;99.90;;;;;;4978813;28;20284;-83
2023/11/01 07:14:58;;;;;;;0.50;0.43;;;11.50;99.90;;;;;;4979964;28;20525;-82
2023/11/01 07:17:27;;;;;;;0.50;0.40;;;11.50;99.90;;;;;;4979718;28;20501;-82
2023/11/01 07:19:54;;;;;;;1.00;0.90;;;11.60;99.90;;;;;;4979935;28;20524;-82
2023/11/01 07:22:21;;;;;;;1.30;1.30;;;11.60;99.90;;;;;;4978974;28;20436;-84
2023/11/01 07:24:49;;;;;;;0.97;0.97;;;11.60;99.90;;;;;;4978254;28;20485;-82
2023/11/01 07:27:16;;;;;;;0.83;0.70;;;11.60;99.90;;;;;;4977043;28;20914;-82
2023/11/01 07:29:43;;;;;;;0.40;0.40;;;11.70;99.90;;;;;;4976796;28;20471;-83
2023/11/01 07:32:11;;;;;;;0.50;0.40;;;11.80;99.90;;;;;;4976403;28;20441;-81
2023/11/01 07:34:38;;;;;;;0.70;0.40;;;11.80;99.90;;;;;;4977371;28;20475;-81
2023/11/01 07:37:10;;;;;;;0.70;0.70;;;11.90;99.90;;;;;;4974076;28;20817;-82
2023/11/01 07:39:37;;;;;;;0.40;0.40;;;11.90;99.90;;;;;;4974391;28;20453;-81
2023/11/01 07:42:04;;;;;;;0.40;0.40;;;11.90;99.90;;;;;;4973911;28;20444;-81
2023/11/01 07:44:31;;;;;;;0.60;0.50;;;11.90;99.90;;;;;;4974497;28;20532;-81
2023/11/01 07:46:58;;;;;;;0.90;0.90;;;11.90;99.90;;;;;;4974918;28;20441;-82
2023/11/01 07:49:26;;;;;;;1.50;1.43;;;12.00;99.90;;;;;;5013705;28;20526;-82
2023/11/01 07:51:53;;;;;;;0.40;0.40;;;12.10;99.90;;;;;;5036069;28;20445;-83
2023/11/01 07:54:20;;;;;;;0.97;0.97;;;12.10;99.90;;;;;;5035906;28;20450;-83
2023/11/01 07:56:47;;;;;;;0.50;0.40;;;12.20;99.90;;;;;;5035917;28;21018;-81
2023/11/01 07:59:13;;;;;;;0.50;0.40;;;12.30;99.90;;;;;;5036425;28;20478;-81
2023/11/01 08:01:41;;;;;;;0.50;0.40;;;12.30;99.90;;;;;;5037342;28;20461;-82
2023/11/01 08:04:08;;;;;;;0.40;0.40;;;12.40;99.90;;;;;;5036587;28;20473;-83
2023/11/01 08:06:37;;;;;;;0.50;0.40;;;12.50;99.90;;;;;;5036913;28;20430;-81
2023/11/01 08:09:04;;;;;;;0.50;0.50;;;12.50;99.90;;;;;;5036914;28;20470;-81
2023/11/01 08:11:31;;;;;;;0.50;0.40;;;12.50;99.90;;;;;;5037472;28;21073;-81
2023/11/01 08:13:58;;;;;;;3.60;0.60;;;12.50;99.90;;;;;;5037027;28;20458;-82
2023/11/01 08:16:24;;;;;;;0.60;0.53;;;12.60;99.90;;;;;;5037162;28;20811;-82
2023/11/01 08:18:51;;;;;;;0.50;0.40;;;12.60;99.90;;;;;;5037220;28;20439;-82
2023/11/01 08:21:18;;;;;;;0.70;0.70;;;12.70;99.90;;;;;;5035971;28;20430;-83
2023/11/01 08:23:46;;;;;;;1.33;0.83;;;12.80;99.90;;;;;;5037390;28;20454;-82
2023/11/01 08:26:16;;;;;;;0.50;0.40;;;12.80;99.90;;;;;;5037614;28;20584;-81
2023/11/01 08:28:42;;;;;;;0.50;0.40;;;12.80;99.90;;;;;;5037066;28;20431;-79
2023/11/01 08:31:09;;;;;;;0.50;0.40;;;12.90;99.90;;;;;;5036313;28;20449;-81
2023/11/01 08:33:36;;;;;;;1.03;0.50;;;12.90;99.90;;;;;;5037778;28;20462;-80
2023/11/01 08:36:03;;;;;;;2.40;1.67;;;13.00;99.90;;;;;;5036441;28;20457;-82
2023/11/01 08:38:30;;;;;;;0.50;0.40;;;13.20;99.90;;;;;;5037607;28;20438;-81
2023/11/01 08:40:58;;;;;;;0.70;0.70;;;13.30;99.90;;;;;;5037366;28;21017;-82
2023/11/01 08:43:25;;;;;;;0.67;0.47;;;13.50;99.90;;;;;;5036694;28;20541;-82
2023/11/01 08:45:52;;;;;;;0.60;0.57;;;13.70;99.90;;;;;;5035873;28;20474;-82
2023/11/01 08:48:18;;;;;;;0.73;0.73;;;13.80;99.90;;;;;;5034103;28;20557;-83
2023/11/01 08:50:45;;;;;;;4.00;0.57;;;14.00;99.90;;;;;;5033472;28;20435;-81
2023/11/01 08:53:12;;;;;;;0.50;0.40;;;14.40;99.90;;;;;;5034744;28;20472;-81
2023/11/01 08:55:39;;;;;;;2.50;0.60;;;14.60;99.90;;;;;;5035653;28;20434;-78
2023/11/01 08:58:07;;;;;;;0.50;0.40;;;14.60;99.90;;;;;;5038895;28;20441;-79
2023/11/01 09:00:34;;;;;;;14.83;1.27;;;14.60;99.90;;;;;;5037249;28;20434;-80
2023/11/01 09:03:01;;;;;;;0.50;0.50;;;14.60;99.90;;;;;;5041654;28;20481;-78
2023/11/01 09:05:28;;;;;;;2.20;1.27;;;14.70;99.90;;;;;;5042911;28;20470;-82
2023/11/01 09:07:54;;;;;;;0.50;0.40;;;14.80;99.90;;;;;;5042569;28;20514;-81
2023/11/01 09:10:21;;;;;;;0.50;0.40;;;14.90;99.90;;;;;;5041085;28;20462;-81
2023/11/01 09:12:48;;;;;;;0.60;0.60;;;15.00;99.90;;;;;;5040958;28;20434;-81
2023/11/01 09:15:16;;;;;;;0.70;0.60;;;15.00;99.90;;;;;;5071769;22;20490;-80
2023/11/01 09:17:43;;;;;;;0.50;0.30;;;14.90;99.90;;;;;;5070376;28;20491;-80
2023/11/01 09:20:10;;;;;;;3.17;2.93;;;14.80;99.90;;;;;;5076772;28;20448;-80
2023/11/01 09:22:37;;;;;;;0.50;0.40;;;14.70;99.90;;;;;;5076810;28;20869;-80
2023/11/01 09:25:06;;;;;;;0.50;0.40;;;14.60;99.90;;;;;;5075883;28;20480;-82
2023/11/01 09:27:33;;;;;;;4.20;3.80;;;14.50;99.90;;;;;;5075613;28;20437;-80
2023/11/01 09:29:59;;;;;;;4.53;0.73;;;14.40;99.90;;;;;;5074617;28;20812;-80
2023/11/01 09:32:27;;;;;;;0.50;0.50;;;14.40;99.90;;;;;;5074715;28;20432;-81
2023/11/01 09:34:54;;;;;;;0.80;0.40;;;14.30;99.90;;;;;;5074219;28;20457;-79
2023/11/01 09:37:21;;;;;;;0.50;0.40;;;14.20;99.90;;;;;;5073487;28;20455;-79
2023/11/01 09:39:48;;;;;;;0.63;0.63;;;14.20;99.90;;;;;;5074333;28;20471;-80
2023/11/01 09:42:20;;;;;;;2.93;0.83;;;14.20;99.90;;;;;;5075969;28;20444;-80
2023/11/01 09:44:47;;;;;;;0.60;0.50;;;14.30;99.90;;;;;;5077489;28;20440;-80
2023/11/01 09:47:16;;;;;;;0.60;0.50;;;14.40;99.90;;;;;;5076900;28;20437;-80
2023/11/01 09:49:45;;;;;;;0.50;0.40;;;14.40;99.90;;;;;;5076246;28;20920;-79
2023/11/01 09:52:12;;;;;;;1.33;0.60;;;14.50;99.90;;;;;;5076792;28;20447;-79
2023/11/01 09:54:38;;;;;;;0.50;0.40;;;14.50;99.90;;;;;;5074557;28;20441;-79
2023/11/01 09:57:06;;;;;;;1.17;0.43;;;14.50;99.90;;;;;;5080243;28;20432;-81
2023/11/01 10:02:56;;;;;;;0.50;0.30;;;14.60;99.90;;;;;;5068524;28;20427;-79
2023/11/01 10:05:24;;;;;;;0.50;0.40;;;14.50;99.90;;;;;;5075580;28;20480;-80
2023/11/01 10:07:51;;;;;;;0.50;0.40;;;14.60;99.90;;;;;;5077773;28;20441;-82
2023/11/01 10:10:18;;;;;;;0.50;0.37;;;14.60;99.90;;;;;;5077090;28;20475;-79
2023/11/01 10:12:45;;;;;;;0.50;0.50;;;14.70;99.90;;;;;;5080451;28;20443;-77
2023/11/01 10:15:20;;;;;;;0.50;0.40;;;14.60;99.90;;;;;;5076727;28;21023;-80
2023/11/01 10:17:47;;;;;;;0.60;0.50;;;14.40;99.90;;;;;;5075380;28;20473;-81
2023/11/01 10:20:22;;;;;;;1.07;0.60;;;14.30;99.90;;;;;;5075550;28;21030;-80
2023/11/01 10:22:50;;;;;;;1.00;0.60;;;14.30;99.90;;;;;;5077526;28;20850;-78
2023/11/01 10:25:19;;;;;;;6.73;1.33;;;14.20;99.90;;;;;;5077395;28;20514;-80
2023/11/01 10:27:46;;;;;;;1.07;0.70;;;14.20;99.90;;;;;;5079549;28;20437;-80
2023/11/01 10:30:14;;;;;;;0.50;0.30;;;14.40;99.90;;;;;;5077481;28;20540;-78
2023/11/01 10:32:40;;;;;;;0.63;0.47;;;14.60;99.90;;;;;;5075790;28;20444;-80
2023/11/01 10:35:11;;;;;;;0.50;0.40;;;14.90;99.90;;;;;;5077750;28;20802;-79
2023/11/01 10:37:37;;;;;;;1.57;1.10;;;15.40;99.90;;;;;;5073706;28;20436;-76
2023/11/01 10:40:07;;;;;;;0.60;0.60;;;15.80;99.90;;;;;;5076983;28;20439;-80
2023/11/01 10:42:39;;;;;;;1.43;0.60;;;15.60;99.90;;;;;;5076952;28;20432;-80
2023/11/01 10:45:06;;;;;;;3.63;1.80;;;15.60;99.90;;;;;;5075579;28;21069;-80
2023/11/01 10:47:34;;;;;;;0.97;0.97;;;16.00;99.90;;;;;;5075648;28;20448;-79
2023/11/01 10:50:03;;;;;;;0.50;0.30;;;16.30;99.90;;;;;;5076078;28;20433;-82
2023/11/01 10:52:30;;;;;;;0.50;0.30;;;16.50;99.90;;;;;;5077220;28;20487;-79
2023/11/01 10:54:59;;;;;;;2.03;1.27;;;16.60;99.90;;;;;;5077094;28;20467;-82
2023/11/01 10:57:28;;;;;;;0.50;0.40;;;16.60;99.90;;;;;;5077218;28;20449;-80
2023/11/01 11:00:05;;;;;;;0.57;0.47;;;16.30;99.90;;;;;;5075910;28;20447;-79
2023/11/01 11:02:38;;;;;;;0.80;0.70;;;16.30;99.90;;;;;;5074458;28;20812;-81
2023/11/01 11:05:10;;;;;;;0.60;0.50;;;16.10;99.90;;;;;;5075543;28;20467;-80
2023/11/01 11:07:47;;;;;;;0.50;0.40;;;15.80;99.90;;;;;;5074582;28;20436;-80
2023/11/01 11:10:24;;;;;;;0.53;0.40;;;15.90;99.90;;;;;;5075292;28;20447;-81
2023/11/01 11:13:26;;;;;;;1.30;0.60;;;15.90;99.90;;;;;;5065110;28;20939;-78
2023/11/01 11:15:59;;;;;;;1.60;0.60;;;15.60;99.90;;;;;;5069234;28;20459;-79
2023/11/01 11:18:27;;;;;;;2.00;0.70;;;15.50;99.90;;;;;;5073315;28;20436;-77
2023/11/01 11:20:55;;;;;;;0.70;0.60;;;15.60;99.90;;;;;;5075409;28;20436;-81
2023/11/01 11:23:30;;;;;;;0.50;0.40;;;16.10;99.90;;;;;;5075578;28;21042;-79
2023/11/01 11:25:59;;;;;;;4.43;0.50;;;16.80;99.90;;;;;;5073916;28;20487;-80
2023/11/01 11:28:46;;;;;;;3.50;0.60;;;17.20;99.90;;;;;;5073740;28;20451;-79
2023/11/01 11:31:15;;;;;;;0.50;0.40;;;17.20;99.90;;;;;;5075554;28;20612;-79
2023/11/01 11:34:10;;;;;;;0.50;0.40;;;17.40;99.90;;;;;;5073835;28;20433;-80
2023/11/01 11:36:37;;;;;;;0.77;0.77;;;17.30;99.90;;;;;;5073915;28;20979;-77
2023/11/01 11:39:05;;;;;;;1.53;0.80;;;16.80;99.90;;;;;;5074089;28;20432;-80
2023/11/01 11:41:44;;;;;;;1.03;0.70;;;16.20;99.90;;;;;;5075726;28;20467;-79
2023/11/01 11:44:13;;;;;;;0.50;0.37;;;15.70;99.90;;;;;;5076443;28;20451;-80
2023/11/01 11:46:41;;;;;;;1.90;1.20;;;15.60;99.90;;;;;;5077851;28;20516;-80
2023/11/01 11:49:09;;;;;;;2.33;0.87;;;15.50;99.90;;;;;;5075177;28;20812;-81
2023/11/01 11:51:37;;;;;;;0.60;0.50;;;15.30;99.90;;;;;;5075922;28;20443;-80
2023/11/01 11:54:11;;;;;;;1.50;1.50;;;15.30;99.90;;;;;;5075229;28;20472;-79
2023/11/01 11:56:39;;;;;;;0.60;0.57;;;15.30;99.90;;;;;;5075524;28;20517;-80
2023/11/01 11:59:05;;;;;;;6.33;1.17;;;15.40;99.90;;;;;;5075926;28;20436;-80
2023/11/01 12:01:33;;;;;;;0.50;0.40;;;15.40;99.90;;;;;;5074854;28;20814;-82
2023/11/01 12:04:00;;;;;;;0.60;0.50;;;15.40;99.90;;;;;;5073674;28;20441;-82
2023/11/01 12:06:38;;;;;;;0.50;0.40;;;15.50;99.90;;;;;;5074192;28;20507;-80
2023/11/01 12:09:11;;;;;;;1.23;0.40;;;15.60;99.90;;;;;;5074018;28;20432;-81
2023/11/01 12:11:38;;;;;;;0.50;0.40;;;15.70;99.90;;;;;;5075026;28;20460;-79
2023/11/01 12:14:05;;;;;;;0.50;0.40;;;15.80;99.90;;;;;;5075284;28;20812;-80
2023/11/01 12:16:33;;;;;;;0.50;0.40;;;15.90;99.90;;;;;;5076824;28;20981;-80
2023/11/01 12:19:13;;;;;;;2.00;0.87;;;15.80;99.90;;;;;;5076578;28;20804;-80
2023/11/01 12:21:41;;;;;;;2.10;0.50;;;15.80;99.90;;;;;;5075850;28;20444;-79
2023/11/01 12:24:09;;;;;;;4.20;0.80;;;15.80;99.90;;;;;;5077267;28;20441;-80
2023/11/01 12:26:55;;;;;;;0.70;0.57;;;15.90;99.90;;;;;;5080773;28;20506;-80
2023/11/01 12:29:22;;;;;;;3.27;0.60;;;15.90;99.90;;;;;;5077816;28;20965;-80
2023/11/01 12:32:00;;;;;;;0.50;0.40;;;15.90;99.90;;;;;;5081595;28;20460;-82
2023/11/01 12:34:28;;;;;;;1.53;0.73;;;16.00;99.90;;;;;;5081140;28;20455;-81
2023/11/01 12:37:03;;;;;;;0.50;0.40;;;16.00;99.90;;;;;;5080440;28;20484;-80
2023/11/01 12:39:29;;;;;;;1.03;0.60;;;15.80;99.90;;;;;;5081353;28;20444;-81
2023/11/01 12:41:56;;;;;;;0.70;0.67;;;15.60;99.90;;;;;;5080991;28;20445;-82
2023/11/01 12:44:24;;;;;;;0.50;0.37;;;15.60;99.90;;;;;;5077426;28;20444;-80
2023/11/01 12:46:50;;;;;;;4.73;0.93;;;15.50;99.90;;;;;;5068188;28;20476;-82
2023/11/01 12:49:17;;;;;;;0.60;0.60;;;15.40;99.90;;;;;;5074977;28;20487;-80
2023/11/01 12:51:45;;;;;;;1.10;0.70;;;15.30;99.90;;;;;;5074127;28;20432;-78
2023/11/01 12:54:12;;;;;;;0.50;0.50;;;15.40;99.90;;;;;;5074534;28;20935;-80
2023/11/01 12:56:39;;;;;;;0.50;0.33;;;15.50;99.90;;;;;;5074027;28;20461;-83